Time;durP1;ratioP1;P1;durP2;ratioP2;P2;SDS_P1;SDS_P2;PMS_P1;PMS_P2;Temp;Humidity;BMP_temperature;BMP_pressure;BME280_temperature;BME280_humidity;BME280_pressure;Samples;Min_cycle;Max_cycle;Signal;HPM_P1;HPM_P2
2020/12/25 00:01:32;;;;;;;;;;;;;;;21.94;37.16;99898.53;4989893;28;19930;-60
2020/12/25 00:03:58;;;;;;;;;;;;;;;21.94;37.21;99898.53;4990866;28;20280;-60
2020/12/25 00:06:31;;;;;;;;;;;;;;;21.94;37.07;99896.59;4991162;28;19965;-60
2020/12/25 00:08:58;;;;;;;;;;;;;;;21.94;37.23;99898.53;4991413;28;19972;-60
2020/12/25 00:11:29;;;;;;;;;;;;;;;21.92;37.16;99901.63;4991753;28;19925;-61
2020/12/25 00:13:55;;;;;;;;;;;;;;;21.90;37.31;99908.59;4991732;28;19926;-61
2020/12/25 00:16:25;;;;;;;;;;;;;;;21.90;37.04;99903.84;4993814;28;20384;-61
2020/12/25 00:18:51;;;;;;;;;;;;;;;21.88;37.29;99906.09;5004650;28;19933;-60
2020/12/25 00:21:17;;;;;;;;;;;;;;;21.89;37.16;99909.72;5010191;28;19984;-61
2020/12/25 00:23:44;;;;;;;;;;;;;;;21.88;36.89;99917.19;5009740;28;20012;-62
2020/12/25 00:26:10;;;;;;;;;;;;;;;21.90;37.25;99919.69;4994483;28;19926;-61
2020/12/25 00:28:36;;;;;;;;;;;;;;;21.90;36.95;99919.69;4994662;28;19926;-60
2020/12/25 00:31:03;;;;;;;;;;;;;;;21.91;37.23;99924.94;4993546;28;20304;-60
2020/12/25 00:33:29;;;;;;;;;;;;;;;21.90;37.43;99920.50;4994641;28;19926;-61
2020/12/25 00:35:55;;;;;;;;;;;;;;;21.90;36.99;99926.06;4993947;28;19926;-62
2020/12/25 00:38:21;;;;;;;;;;;;;;;21.89;37.18;99920.81;4992798;28;20027;-61
2020/12/25 00:40:47;;;;;;;;;;;;;;;21.87;37.19;99921.09;4994431;28;19925;-60
2020/12/25 00:43:14;;;;;;;;;;;;;;;21.88;37.05;99922.75;5009692;28;19926;-61
2020/12/25 00:45:41;;;;;;;;;;;;;;;21.86;37.02;99925.00;4994633;28;19926;-60
2020/12/25 00:48:07;;;;;;;;;;;;;;;21.85;37.20;99917.81;4992698;28;19925;-61
2020/12/25 00:50:33;;;;;;;;;;;;;;;21.86;37.29;99925.00;4994311;28;19926;-62
2020/12/25 00:52:59;;;;;;;;;;;;;;;21.85;37.03;99926.13;5011478;28;19988;-61
2020/12/25 00:55:26;;;;;;;;;;;;;;;21.86;37.08;99935.28;5012718;28;20052;-62
2020/12/25 00:57:52;;;;;;;;;;;;;;;21.87;37.43;99937.75;5013818;28;20008;-59
2020/12/25 01:00:21;;;;;;;;;;;;;;;21.88;37.30;99942.19;5012320;28;19949;-60
2020/12/25 01:02:47;;;;;;;;;;;;;;;21.90;37.39;99937.16;5022773;28;19954;-61
2020/12/25 01:05:13;;;;;;;;;;;;;;;21.89;36.90;99949.38;5005745;28;20023;-60
2020/12/25 01:07:39;;;;;;;;;;;;;;;21.91;37.14;99944.34;4996291;28;20012;-62
2020/12/25 01:10:06;;;;;;;;;;;;;;;21.91;37.48;99947.13;4994712;28;19926;-62
2020/12/25 01:12:32;;;;;;;;;;;;;;;21.93;37.40;99944.06;4995872;28;20004;-60
2020/12/25 01:14:58;;;;;;;;;;;;;;;21.91;37.16;99947.13;4995670;28;20411;-62
2020/12/25 01:17:26;;;;;;;;;;;;;;;21.90;37.50;99942.72;4997563;28;19953;-62
2020/12/25 01:19:52;;;;;;;;;;;;;;;21.90;37.29;99950.22;4996021;28;19930;-60
2020/12/25 01:22:18;;;;;;;;;;;;;;;21.95;37.39;99945.41;4995521;28;20478;-59
2020/12/25 01:24:45;;;;;;;;;;;;;;;21.96;37.42;99957.34;4992915;28;20524;-61
2020/12/25 01:27:12;;;;;;;;;;;;;;;21.95;37.02;99959.28;5009358;28;19930;-62
2020/12/25 01:29:38;;;;;;;;;;;;;;;21.94;37.15;99965.13;4993962;28;19934;-62
2020/12/25 01:32:04;;;;;;;;;;;;;;;21.91;36.96;99963.78;4994635;28;19926;-62
2020/12/25 01:34:32;;;;;;;;;;;;;;;21.88;37.24;99961.59;4994652;28;20463;-61
2020/12/25 01:36:58;;;;;;;;;;;;;;;21.86;37.13;99969.41;4994770;28;19926;-60
2020/12/25 01:39:24;;;;;;;;;;;;;;;21.84;36.99;99974.41;4994729;28;20358;-60
2020/12/25 01:41:51;;;;;;;;;;;;;;;21.85;37.25;99967.75;5008922;28;20285;-61
2020/12/25 01:44:17;;;;;;;;;;;;;;;21.85;37.19;99966.91;4996112;28;20304;-61
2020/12/25 01:46:43;;;;;;;;;;;;;;;21.86;36.97;99963.03;5009140;28;19929;-62
2020/12/25 01:49:10;;;;;;;;;;;;;;;21.89;36.96;99965.19;4993428;28;20307;-62
2020/12/25 01:51:36;;;;;;;;;;;;;;;21.90;36.62;99970.47;5007591;28;19934;-61
2020/12/25 01:54:03;;;;;;;;;;;;;;;21.93;36.86;99969.88;4993552;28;19964;-61
2020/12/25 01:56:29;;;;;;;;;;;;;;;21.98;36.58;99977.31;4995115;28;19926;-60
2020/12/25 01:58:55;;;;;;;;;;;;;;;22.00;36.61;99972.28;4995107;28;19953;-62
2020/12/25 02:01:21;;;;;;;;;;;;;;;22.00;36.33;99964.78;5009409;28;19926;-60
2020/12/25 02:03:47;;;;;;;;;;;;;;;22.00;36.64;99975.88;4993913;28;20382;-61
2020/12/25 02:06:14;;;;;;;;;;;;;;;22.00;36.36;99980.59;4974649;28;19933;-61
2020/12/25 02:08:40;;;;;;;;;;;;;;;22.00;36.57;99980.59;4989653;28;19926;-61
2020/12/25 02:11:07;;;;;;;;;;;;;;;22.00;36.20;99975.88;4995781;28;19973;-62
2020/12/25 02:13:33;;;;;;;;;;;;;;;21.99;36.29;99981.72;4995101;28;19926;-64
2020/12/25 02:15:59;;;;;;;;;;;;;;;21.97;36.32;99983.97;5002371;28;19945;-61
2020/12/25 02:18:38;;;;;;;;;;;;;;;21.93;36.37;99989.28;5019903;28;19953;-62
2020/12/25 02:21:05;;;;;;;;;;;;;;;21.94;36.27;99998.44;4992092;28;19926;-62
2020/12/25 02:23:31;;;;;;;;;;;;;;;21.93;36.25;99994.84;5007910;28;19926;-62
2020/12/25 02:25:59;;;;;;;;;;;;;;;21.91;36.36;100005.41;4991111;28;21278;-61
2020/12/25 02:28:25;;;;;;;;;;;;;;;21.90;36.46;100003.75;4992858;28;19956;-61
2020/12/25 02:30:51;;;;;;;;;;;;;;;21.89;36.49;100010.44;5007782;28;19976;-62
2020/12/25 02:33:17;;;;;;;;;;;;;;;21.86;36.58;100008.25;4993353;28;20327;-61
2020/12/25 02:35:44;;;;;;;;;;;;;;;21.86;36.48;100005.47;4993765;28;19972;-62
2020/12/25 02:38:10;;;;;;;;;;;;;;;21.86;36.49;100005.47;4991900;28;19949;-62
2020/12/25 02:40:36;;;;;;;;;;;;;;;21.88;36.36;100010.72;4992999;28;19926;-63
2020/12/25 02:43:02;;;;;;;;;;;;;;;21.90;36.17;100003.75;5007652;28;19933;-62
2020/12/25 02:45:29;;;;;;;;;;;;;;;21.96;36.08;100019.22;4993035;28;19925;-62
2020/12/25 02:47:55;;;;;;;;;;;;;;;21.97;36.11;100026.44;4992823;28;19976;-62
2020/12/25 02:50:21;;;;;;;;;;;;;;;21.95;36.19;100025.91;5010398;28;19929;-60
2020/12/25 02:52:47;;;;;;;;;;;;;;;21.92;36.24;100032.03;5018992;28;19951;-60
2020/12/25 02:55:14;;;;;;;;;;;;;;;21.90;36.19;100031.50;4993928;28;19976;-62
2020/12/25 02:57:40;;;;;;;;;;;;;;;21.90;36.22;100027.91;5006926;28;20384;-60
2020/12/25 03:00:06;;;;;;;;;;;;;;;21.89;36.38;100032.63;5006897;28;20467;-60
2020/12/25 03:02:32;;;;;;;;;;;;;;;21.88;36.38;100038.47;4990761;28;19929;-61
2020/12/25 03:04:58;;;;;;;;;;;;;;;21.88;36.16;100035.69;4992022;28;19926;-61
2020/12/25 03:07:25;;;;;;;;;;;;;;;21.86;36.34;100035.97;4992269;28;19925;-60
2020/12/25 03:09:51;;;;;;;;;;;;;;;21.84;36.42;100043.78;5007161;28;19961;-62
2020/12/25 03:12:17;;;;;;;;;;;;;;;21.81;36.39;100049.94;4991016;28;19930;-61
2020/12/25 03:14:43;;;;;;;;;;;;;;;21.80;36.29;100059.38;4991624;28;20025;-61
2020/12/25 03:17:09;;;;;;;;;;;;;;;21.79;36.20;100052.19;4990799;28;19926;-61
2020/12/25 03:19:36;;;;;;;;;;;;;;;21.77;36.31;100059.97;4993315;28;19926;-61
2020/12/25 03:22:02;;;;;;;;;;;;;;;21.77;36.36;100059.97;4994746;28;19969;-61
2020/12/25 03:24:28;;;;;;;;;;;;;;;21.77;36.28;100057.19;4991944;28;19968;-60
2020/12/25 03:26:54;;;;;;;;;;;;;;;21.77;35.96;100053.59;4991937;28;19996;-61
2020/12/25 03:29:21;;;;;;;;;;;;;;;21.79;36.09;100054.97;4991752;28;19933;-61
2020/12/25 03:31:47;;;;;;;;;;;;;;;21.78;36.24;100061.63;4991646;28;20351;-61
2020/12/25 03:34:13;;;;;;;;;;;;;;;21.79;35.97;100057.72;4991713;28;20327;-61
2020/12/25 03:36:40;;;;;;;;;;;;;;;21.78;36.25;100061.63;4992097;28;19932;-62
2020/12/25 03:39:06;;;;;;;;;;;;;;;21.82;35.91;100061.88;4992037;28;20377;-61
2020/12/25 03:41:32;;;;;;;;;;;;;;;21.83;35.71;100067.09;4991376;28;20455;-61
2020/12/25 03:43:58;;;;;;;;;;;;;;;21.87;35.73;100067.34;4991608;28;20016;-61
2020/12/25 03:46:24;;;;;;;;;;;;;;;21.87;35.95;100065.38;4989357;28;19926;-62
2020/12/25 03:48:50;;;;;;;;;;;;;;;21.85;36.07;100070.41;5007916;28;19936;-61
2020/12/25 03:51:17;;;;;;;;;;;;;;;21.86;36.02;100063.72;4995328;28;20348;-62
2020/12/25 03:53:43;;;;;;;;;;;;;;;21.84;36.01;100071.53;4995651;28;19932;-60
2020/12/25 03:56:09;;;;;;;;;;;;;;;21.83;35.65;100077.41;4995429;28;19952;-61
2020/12/25 03:58:35;;;;;;;;;;;;;;;21.80;35.71;100078.81;4995537;28;19926;-60
2020/12/25 04:01:01;;;;;;;;;;;;;;;21.78;35.93;100071.91;5009686;28;19973;-60
2020/12/25 04:03:28;;;;;;;;;;;;;;;21.75;35.77;100065.00;4993792;28;19972;-61
2020/12/25 04:06:07;;;;;;;;;;;;;;;21.73;36.12;100075.53;4995084;28;19926;-61
2020/12/25 04:08:35;;;;;;;;;;;;;;;21.71;35.89;100077.78;4995208;28;19930;-61
2020/12/25 04:11:01;;;;;;;;;;;;;;;21.71;36.10;100075.00;4993087;28;20098;-61
2020/12/25 04:13:27;;;;;;;;;;;;;;;21.69;35.83;100072.53;4995133;28;19926;-61
2020/12/25 04:15:53;;;;;;;;;;;;;;;21.69;36.02;100074.47;4994788;28;19926;-60
2020/12/25 04:18:20;;;;;;;;;;;;;;;21.70;35.87;100078.91;4994344;28;20028;-61
2020/12/25 04:20:46;;;;;;;;;;;;;;;21.71;35.96;100086.09;5010274;28;20016;-61
2020/12/25 04:23:12;;;;;;;;;;;;;;;21.70;35.83;100090.00;4996774;28;19934;-61
2020/12/25 04:25:38;;;;;;;;;;;;;;;21.72;35.96;100090.53;4998443;28;19933;-62
2020/12/25 04:28:05;;;;;;;;;;;;;;;21.70;35.96;100099.16;4993661;28;19926;-61
2020/12/25 04:30:31;;;;;;;;;;;;;;;21.69;35.98;100093.91;5009606;28;19925;-61
2020/12/25 04:32:57;;;;;;;;;;;;;;;21.69;35.73;100096.66;4994447;28;19964;-60
2020/12/25 04:35:23;;;;;;;;;;;;;;;21.70;35.97;100101.09;4994722;28;19926;-61
2020/12/25 04:37:49;;;;;;;;;;;;;;;21.70;36.07;100101.94;4994087;28;19925;-62
2020/12/25 04:40:16;;;;;;;;;;;;;;;21.70;36.08;100099.16;4994296;28;19976;-61
2020/12/25 04:42:42;;;;;;;;;;;;;;;21.71;35.60;100099.97;4994179;28;20093;-61
2020/12/25 04:45:08;;;;;;;;;;;;;;;21.70;35.83;100104.69;4993168;28;19961;-61
2020/12/25 04:47:35;;;;;;;;;;;;;;;21.69;35.69;100114.13;4994400;28;19932;-61
2020/12/25 04:50:02;;;;;;;;;;;;;;;21.68;35.95;100115.25;4993938;28;20005;-61
2020/12/25 04:52:28;;;;;;;;;;;;;;;21.68;35.98;100114.44;5000745;28;20024;-62
2020/12/25 04:54:54;;;;;;;;;;;;;;;21.68;35.61;100122.75;4994103;28;19984;-62
2020/12/25 04:57:20;;;;;;;;;;;;;;;21.68;35.88;100122.75;4994157;28;19949;-61
2020/12/25 04:59:47;;;;;;;;;;;;;;;21.65;35.52;100126.94;5008391;28;19933;-61
2020/12/25 05:02:14;;;;;;;;;;;;;;;21.64;35.71;100136.38;5023559;22;19933;-61
2020/12/25 05:04:40;;;;;;;;;;;;;;;21.65;35.95;100128.88;4995927;28;19932;-63
2020/12/25 05:07:06;;;;;;;;;;;;;;;21.64;35.91;100138.31;4995768;28;19936;-62
2020/12/25 05:09:32;;;;;;;;;;;;;;;21.66;35.89;100141.63;4995763;28;19932;-62
2020/12/25 05:11:59;;;;;;;;;;;;;;;21.64;35.89;100144.69;5013260;28;19932;-63
2020/12/25 05:14:32;;;;;;;;;;;;;;;21.64;35.96;100146.63;5013197;28;20016;-62
2020/12/25 05:16:59;;;;;;;;;;;;;;;21.65;35.89;100151.06;5013240;28;19929;-62
2020/12/25 05:19:26;;;;;;;;;;;;;;;21.64;35.70;100155.78;4995542;28;19965;-63
2020/12/25 05:21:53;;;;;;;;;;;;;;;21.65;35.71;100156.63;4995914;28;20414;-63
2020/12/25 05:24:19;;;;;;;;;;;;;;;21.65;35.51;100167.72;4996074;28;20013;-62
2020/12/25 05:26:55;;;;;;;;;;;;;;;21.65;35.85;100164.94;5013152;28;19926;-61
2020/12/25 05:29:22;;;;;;;;;;;;;;;21.66;35.72;100170.19;5012952;28;19980;-63
2020/12/25 05:31:48;;;;;;;;;;;;;;;21.66;35.84;100174.91;4995007;28;19972;-63
2020/12/25 05:34:15;;;;;;;;;;;;;;;21.65;35.44;100173.25;4995371;28;19939;-63
2020/12/25 05:36:47;;;;;;;;;;;;;;;21.66;35.52;100191.56;4995326;28;19980;-63
2020/12/25 05:39:17;;;;;;;;;;;;;;;21.64;35.31;100191.03;5012604;28;19925;-63
2020/12/25 05:41:44;;;;;;;;;;;;;;;21.65;35.49;100193.50;4979059;28;19925;-62
2020/12/25 05:44:10;;;;;;;;;;;;;;;21.64;35.69;100191.03;4995432;28;19932;-62
2020/12/25 05:46:36;;;;;;;;;;;;;;;21.59;35.69;100191.88;5012779;28;19926;-63
2020/12/25 05:49:03;;;;;;;;;;;;;;;21.60;35.65;100207.41;4995323;28;19932;-62
2020/12/25 05:51:29;;;;;;;;;;;;;;;21.57;35.76;100209.94;4994880;28;20037;-62
2020/12/25 05:53:55;;;;;;;;;;;;;;;21.55;35.49;100210.22;5012354;28;20403;-60
2020/12/25 05:56:21;;;;;;;;;;;;;;;21.55;35.53;100213.00;5012904;28;20040;-61
2020/12/25 05:58:47;;;;;;;;;;;;;;;21.56;35.71;100230.47;5012478;28;20011;-61
2020/12/25 06:01:14;;;;;;;;;;;;;;;21.56;35.63;100225.75;4994814;28;19992;-62
2020/12/25 06:03:40;;;;;;;;;;;;;;;21.55;35.64;100229.63;4994959;28;20400;-61
2020/12/25 06:06:15;;;;;;;;;;;;;;;21.57;35.58;100227.41;5012365;28;19925;-62
2020/12/25 06:08:58;;;;;;;;;;;;;;;21.58;35.42;100236.56;4994596;28;19988;-61
2020/12/25 06:11:29;;;;;;;;;;;;;;;21.56;35.63;100241.56;5011470;28;19936;-62
2020/12/25 06:13:56;;;;;;;;;;;;;;;21.54;35.61;100246.56;5012301;28;19964;-62
2020/12/25 06:16:22;;;;;;;;;;;;;;;21.56;35.45;100249.88;5012537;28;20375;-62
2020/12/25 06:18:54;;;;;;;;;;;;;;;21.57;35.51;100254.31;4994760;28;19925;-61
2020/12/25 06:21:35;;;;;;;;;;;;;;;21.58;35.51;100267.88;4995001;28;19987;-62
2020/12/25 06:24:02;;;;;;;;;;;;;;;21.58;35.44;100272.59;4994685;28;19932;-62
2020/12/25 06:26:28;;;;;;;;;;;;;;;21.53;35.53;100281.78;4975241;28;20439;-61
2020/12/25 06:28:54;;;;;;;;;;;;;;;21.50;35.61;100292.63;4994548;28;19925;-61
2020/12/25 06:31:34;;;;;;;;;;;;;;;21.50;35.54;100299.00;4994479;28;19929;-63
2020/12/25 06:34:01;;;;;;;;;;;;;;;21.53;35.51;100303.16;5012242;28;19992;-61
2020/12/25 06:36:31;;;;;;;;;;;;;;;21.48;35.26;100305.97;5011556;28;19984;-61
2020/12/25 06:38:57;;;;;;;;;;;;;;;21.48;35.38;100317.06;5011690;28;20040;-61
2020/12/25 06:41:25;;;;;;;;;;;;;;;21.47;35.12;100315.41;4994239;28;19964;-62
2020/12/25 06:43:53;;;;;;;;;;;;;;;21.48;35.13;100322.63;4994414;28;19925;-61
2020/12/25 06:46:26;;;;;;;;;;;;;;;21.49;35.32;100330.63;4994912;28;19956;-61
2020/12/25 06:48:52;;;;;;;;;;;;;;;21.48;35.21;100333.72;5011390;28;19933;-60
2020/12/25 06:51:21;;;;;;;;;;;;;;;21.51;35.45;100330.34;4994019;28;20402;-61
2020/12/25 06:53:47;;;;;;;;;;;;;;;21.51;35.11;100330.34;5012226;28;19937;-61
2020/12/25 06:56:15;;;;;;;;;;;;;;;21.51;35.39;100335.88;5012017;28;19956;-61
2020/12/25 06:58:42;;;;;;;;;;;;;;;21.52;35.14;100338.38;4990638;28;19925;-62
2020/12/25 07:01:09;;;;;;;;;;;;;;;21.52;35.31;100334.75;5022393;28;20000;-62
2020/12/25 07:03:35;;;;;;;;;;;;;;;21.54;35.35;100340.84;4995719;28;20355;-61
2020/12/25 07:06:02;;;;;;;;;;;;;;;21.54;35.14;100341.69;5012177;28;19932;-61
2020/12/25 07:08:32;;;;;;;;;;;;;;;21.54;35.08;100344.47;5011874;28;20625;-62
2020/12/25 07:11:03;;;;;;;;;;;;;;;21.55;35.27;100356.38;4980083;28;19933;-63
2020/12/25 07:13:30;;;;;;;;;;;;;;;21.57;34.85;100362.47;5012147;28;20032;-62
2020/12/25 07:15:56;;;;;;;;;;;;;;;21.58;34.89;100366.91;4994392;28;19925;-63
2020/12/25 07:18:23;;;;;;;;;;;;;;;21.55;34.93;100368.31;5011587;28;19957;-61
2020/12/25 07:20:49;;;;;;;;;;;;;;;21.52;35.19;100368.88;4993780;28;20378;-62
2020/12/25 07:23:15;;;;;;;;;;;;;;;21.53;35.27;100380.81;4998201;28;19925;-62
2020/12/25 07:25:42;;;;;;;;;;;;;;;21.51;35.04;100394.13;5003581;28;19925;-62
2020/12/25 07:28:08;;;;;;;;;;;;;;;21.51;35.13;100394.13;5028759;28;19929;-61
2020/12/25 07:30:34;;;;;;;;;;;;;;;21.53;35.15;100394.66;5029267;28;19933;-61
2020/12/25 07:33:04;;;;;;;;;;;;;;;21.56;35.15;100402.41;5029445;28;19925;-61
2020/12/25 07:35:30;;;;;;;;;;;;;;;21.55;35.13;100395.22;5031074;28;19925;-61
2020/12/25 07:37:57;;;;;;;;;;;;;;;21.57;34.91;100404.09;5029477;28;19926;-61
2020/12/25 07:40:23;;;;;;;;;;;;;;;21.56;34.83;100408.78;5028145;28;19972;-61
2020/12/25 07:42:50;;;;;;;;;;;;;;;21.56;35.05;100405.19;5027166;28;19948;-61
2020/12/25 07:45:19;;;;;;;;;;;;;;;21.56;35.12;100408.78;5026808;28;19964;-62
2020/12/25 07:47:49;;;;;;;;;;;;;;;21.58;34.70;100414.06;5027664;28;19926;-63
2020/12/25 07:50:15;;;;;;;;;;;;;;;21.57;34.88;100412.41;5011459;28;19933;-61
2020/12/25 07:52:43;;;;;;;;;;;;;;;21.60;34.65;100417.38;5029633;28;19925;-62
2020/12/25 07:55:16;;;;;;;;;;;;;;;21.58;34.97;100414.91;5000563;28;19926;-61
2020/12/25 07:57:42;;;;;;;;;;;;;;;21.60;34.79;100417.38;5016889;28;19925;-61
2020/12/25 08:00:08;;;;;;;;;;;;;;;21.58;34.90;100425.16;5000852;28;20183;-61
2020/12/25 08:02:35;;;;;;;;;;;;;;;21.61;34.38;100438.47;5017070;28;19929;-62
2020/12/25 08:05:01;;;;;;;;;;;;;;;21.59;34.80;100435.13;5017061;28;19948;-63
2020/12/25 08:07:27;;;;;;;;;;;;;;;21.56;34.54;100447.63;5016871;28;19960;-64
2020/12/25 08:09:57;;;;;;;;;;;;;;;21.53;34.97;100441.81;5016920;28;20012;-61
2020/12/25 08:12:24;;;;;;;;;;;;;;;21.54;35.00;100449.84;4998715;28;19933;-61
2020/12/25 08:14:50;;;;;;;;;;;;;;;21.53;34.90;100458.47;4999117;28;20408;-62
2020/12/25 08:17:16;;;;;;;;;;;;;;;21.54;34.82;100454.56;4999946;28;19925;-62
2020/12/25 08:19:46;;;;;;;;;;;;;;;21.52;34.53;100457.63;5016657;28;20233;-61
2020/12/25 08:22:12;;;;;;;;;;;;;;;21.50;34.62;100459.84;4999106;28;19926;-62
2020/12/25 08:24:39;;;;;;;;;;;;;;;21.49;34.87;100455.41;4999660;28;19951;-62
2020/12/25 08:27:05;;;;;;;;;;;;;;;21.52;34.60;100456.78;4999363;28;19933;-62
2020/12/25 08:29:32;;;;;;;;;;;;;;;21.54;34.68;100455.41;5016669;28;19929;-62
2020/12/25 08:32:05;;;;;;;;;;;;;;;21.54;34.72;100454.56;5017014;28;19937;-61
2020/12/25 08:34:31;;;;;;;;;;;;;;;21.55;34.50;100467.31;4997544;28;19925;-61
2020/12/25 08:36:58;;;;;;;;;;;;;;;21.56;34.68;100469.81;5013971;28;19929;-61
2020/12/25 08:39:25;;;;;;;;;;;;;;;21.60;34.58;100479.25;4996097;28;19926;-62
2020/12/25 08:41:52;;;;;;;;;;;;;;;21.63;34.39;100486.16;5014137;28;19973;-62
2020/12/25 08:44:18;;;;;;;;;;;;;;;21.65;34.63;100486.72;4996214;28;19976;-62
2020/12/25 08:46:44;;;;;;;;;;;;;;;21.68;34.48;100495.31;5013774;28;20403;-61
2020/12/25 08:49:11;;;;;;;;;;;;;;;21.66;34.36;100491.16;5013579;28;19925;-64
2020/12/25 08:51:37;;;;;;;;;;;;;;;21.66;34.58;100496.69;5013530;28;19926;-61
2020/12/25 08:54:04;;;;;;;;;;;;;;;21.69;34.34;100496.13;5013492;28;19932;-60
2020/12/25 08:56:30;;;;;;;;;;;;;;;21.68;34.28;100502.81;4996183;28;19926;-61
2020/12/25 08:59:03;;;;;;;;;;;;;;;21.68;34.44;100509.19;5013833;28;19925;-62
2020/12/25 09:01:30;;;;;;;;;;;;;;;21.69;34.53;100512.78;4996083;28;19926;-61
2020/12/25 09:03:56;;;;;;;;;;;;;;;21.69;34.31;100519.16;4996312;28;19925;-61
2020/12/25 09:06:22;;;;;;;;;;;;;;;21.69;34.25;100521.09;5013414;28;19932;-62
2020/12/25 09:08:49;;;;;;;;;;;;;;;21.67;34.44;100520.56;5013660;28;19929;-63
2020/12/25 09:11:16;;;;;;;;;;;;;;;21.64;34.36;100524.72;5013022;28;20311;-61
2020/12/25 09:13:42;;;;;;;;;;;;;;;21.59;34.30;100527.50;5013409;28;19932;-61
2020/12/25 09:16:10;;;;;;;;;;;;;;;21.57;34.59;100537.22;5013284;28;20133;-61
2020/12/25 09:18:37;;;;;;;;;;;;;;;21.56;34.36;100535.56;4995870;28;19932;-63
2020/12/25 09:21:04;;;;;;;;;;;;;;;21.52;34.45;100537.22;5012099;28;19933;-62
2020/12/25 09:23:30;;;;;;;;;;;;;;;21.55;34.50;100529.19;5013367;28;19925;-63
2020/12/25 09:25:56;;;;;;;;;;;;;;;21.67;34.25;100537.19;5013037;28;19926;-63
2020/12/25 09:28:24;;;;;;;;;;;;;;;21.79;33.78;100546.06;5011702;28;20302;-62
2020/12/25 09:30:52;;;;;;;;;;;;;;;21.87;33.49;100548.22;5011989;28;19925;-62
2020/12/25 09:33:18;;;;;;;;;;;;;;;22.00;33.51;100550.41;5012790;28;19937;-62
2020/12/25 09:35:44;;;;;;;;;;;;;;;22.19;33.16;100549.78;5013320;28;19968;-63
2020/12/25 09:38:11;;;;;;;;;;;;;;;22.25;32.66;100543.94;5012846;28;19932;-62
2020/12/25 09:40:38;;;;;;;;;;;;;;;22.38;32.56;100550.81;5014155;28;19926;-62
2020/12/25 09:43:04;;;;;;;;;;;;;;;22.58;32.19;100552.63;5013395;28;19925;-63
2020/12/25 09:45:30;;;;;;;;;;;;;;;22.67;32.13;100550.91;5012411;28;19926;-62
2020/12/25 09:47:57;;;;;;;;;;;;;;;22.74;32.00;100546.69;5012022;28;19931;-63
2020/12/25 09:50:23;;;;;;;;;;;;;;;22.79;31.83;100545.88;5013049;28;19929;-63
2020/12/25 09:52:49;;;;;;;;;;;;;;;22.80;31.98;100552.25;5012488;28;19925;-63
2020/12/25 09:55:15;;;;;;;;;;;;;;;22.90;31.70;100546.59;5011885;28;20030;-63
2020/12/25 09:57:41;;;;;;;;;;;;;;;22.85;31.78;100549.44;5011891;28;19932;-63
2020/12/25 10:00:08;;;;;;;;;;;;;;;22.75;31.83;100555.88;5012180;28;19929;-63
2020/12/25 10:02:35;;;;;;;;;;;;;;;22.59;32.36;100554.28;5012343;28;19933;-62
2020/12/25 10:05:01;;;;;;;;;;;;;;;22.54;32.59;100559.88;5012273;28;20311;-63
2020/12/25 10:07:28;;;;;;;;;;;;;;;22.50;32.73;100562.44;5011938;28;19994;-62
2020/12/25 10:10:04;;;;;;;;;;;;;;;22.40;32.71;100562.47;5010413;28;19925;-63
2020/12/25 10:12:30;;;;;;;;;;;;;;;22.29;32.82;100561.69;5024114;28;19932;-62
2020/12/25 10:14:56;;;;;;;;;;;;;;;22.27;33.16;100563.09;5028513;28;19926;-62
2020/12/25 10:17:22;;;;;;;;;;;;;;;22.28;32.76;100570.31;5016125;28;19926;-61
2020/12/25 10:19:48;;;;;;;;;;;;;;;22.26;33.08;100572.53;5013646;28;19925;-61
2020/12/25 10:22:15;;;;;;;;;;;;;;;22.30;33.06;100570.84;5012043;28;20467;-61
2020/12/25 10:24:41;;;;;;;;;;;;;;;22.40;32.70;100568.03;5011838;28;19925;-62
2020/12/25 10:27:09;;;;;;;;;;;;;;;22.47;32.82;100573.28;4993568;28;19929;-61
2020/12/25 10:29:36;;;;;;;;;;;;;;;22.66;32.46;100580.66;5011384;28;20295;-61
2020/12/25 10:32:03;;;;;;;;;;;;;;;22.65;32.22;100576.22;5011308;28;19933;-62
2020/12/25 10:34:30;;;;;;;;;;;;;;;22.57;32.36;100581.53;5011084;28;19979;-61
2020/12/25 10:36:56;;;;;;;;;;;;;;;22.49;32.75;100571.03;4993455;28;19925;-61
2020/12/25 10:39:22;;;;;;;;;;;;;;;22.44;32.71;100574.69;4994670;28;20032;-60
2020/12/25 10:41:48;;;;;;;;;;;;;;;22.37;32.66;100574.16;4994422;28;19936;-61
2020/12/25 10:44:16;;;;;;;;;;;;;;;22.34;32.86;100585.84;5011586;28;19933;-62
2020/12/25 10:46:42;;;;;;;;;;;;;;;22.31;32.84;100575.28;5011109;28;19925;-61
2020/12/25 10:49:08;;;;;;;;;;;;;;;22.36;32.73;100566.94;5011883;28;19936;-62
2020/12/25 10:51:34;;;;;;;;;;;;;;;22.43;32.87;100570.25;4994234;28;19933;-62
2020/12/25 10:54:00;;;;;;;;;;;;;;;22.46;32.83;100578.00;5010258;28;19925;-62
2020/12/25 10:56:28;;;;;;;;;;;;;;;22.42;32.73;100573.31;4994262;28;19979;-62
2020/12/25 10:58:55;;;;;;;;;;;;;;;22.37;32.94;100579.72;5012041;28;19932;-61
2020/12/25 11:01:24;;;;;;;;;;;;;;;22.27;33.23;100569.47;5020929;22;19933;-61
2020/12/25 11:03:51;;;;;;;;;;;;;;;22.19;33.40;100578.38;5002547;28;19925;-61
2020/12/25 11:06:17;;;;;;;;;;;;;;;22.17;33.10;100571.50;5026503;28;19941;-61
2020/12/25 11:08:47;;;;;;;;;;;;;;;22.17;33.43;100571.50;5016128;28;20387;-62
2020/12/25 11:11:25;;;;;;;;;;;;;;;22.16;33.43;100570.66;5014836;28;20016;-62
2020/12/25 11:13:51;;;;;;;;;;;;;;;22.14;33.26;100574.81;5007639;28;20426;-61
2020/12/25 11:16:21;;;;;;;;;;;;;;;22.16;33.15;100578.16;5010191;28;19935;-61
2020/12/25 11:18:48;;;;;;;;;;;;;;;22.24;32.97;100580.31;5005221;28;20368;-61
2020/12/25 11:21:21;;;;;;;;;;;;;;;22.34;32.54;100577.50;5010786;28;20394;-61
2020/12/25 11:23:48;;;;;;;;;;;;;;;22.49;32.62;100584.94;5010613;28;19926;-61
2020/12/25 11:26:34;;;;;;;;;;;;;;;22.65;32.22;100573.44;5010609;28;20371;-61
2020/12/25 11:29:02;;;;;;;;;;;;;;;22.71;31.93;100586.19;5011443;28;19956;-61
2020/12/25 11:31:29;;;;;;;;;;;;;;;22.78;31.90;100574.78;5015430;28;19968;-61
2020/12/25 11:33:55;;;;;;;;;;;;;;;22.93;31.62;100571.03;5013379;28;20028;-61
2020/12/25 11:36:29;;;;;;;;;;;;;;;23.07;31.51;100577.63;5012492;28;19930;-61
2020/12/25 11:38:55;;;;;;;;;;;;;;;23.09;31.73;100564.25;5011362;28;19926;-61
2020/12/25 11:41:22;;;;;;;;;;;;;;;23.22;31.21;100571.91;5011232;28;19929;-61
2020/12/25 11:43:49;;;;;;;;;;;;;;;23.27;30.99;100571.88;5009993;28;19932;-61
2020/12/25 11:46:15;;;;;;;;;;;;;;;23.23;31.04;100576.34;5010065;28;19956;-61
2020/12/25 11:48:42;;;;;;;;;;;;;;;23.25;30.90;100574.13;5009776;28;19936;-61
2020/12/25 11:51:08;;;;;;;;;;;;;;;23.23;31.11;100573.56;5009478;28;19964;-61
2020/12/25 11:53:37;;;;;;;;;;;;;;;23.14;31.04;100572.56;5009930;28;19933;-61
2020/12/25 11:56:04;;;;;;;;;;;;;;;23.07;31.50;100569.28;5010415;28;20008;-61
2020/12/25 11:58:31;;;;;;;;;;;;;;;23.06;31.25;100573.19;5009858;28;19932;-61
2020/12/25 12:00:58;;;;;;;;;;;;;;;23.04;31.59;100575.41;5009735;28;19925;-61
2020/12/25 12:03:25;;;;;;;;;;;;;;;23.05;31.41;100566.78;5011579;28;19979;-61
2020/12/25 12:05:51;;;;;;;;;;;;;;;23.03;31.37;100573.75;5011422;28;19929;-61
2020/12/25 12:08:17;;;;;;;;;;;;;;;22.92;31.48;100586.06;5015299;28;19929;-62
2020/12/25 12:10:44;;;;;;;;;;;;;;;22.77;31.83;100577.81;5014736;28;19926;-61
2020/12/25 12:13:11;;;;;;;;;;;;;;;22.67;31.67;100587.88;5015902;28;19926;-61
2020/12/25 12:15:37;;;;;;;;;;;;;;;22.57;31.91;100587.91;5015380;28;19979;-62
2020/12/25 12:18:05;;;;;;;;;;;;;;;22.48;32.58;100586.06;5016673;28;20011;-62
2020/12/25 12:20:31;;;;;;;;;;;;;;;22.44;32.73;100585.78;5015589;28;20023;-61
2020/12/25 12:22:58;;;;;;;;;;;;;;;22.43;32.78;100583.28;5013961;28;19926;-63
2020/12/25 12:25:24;;;;;;;;;;;;;;;22.37;32.31;100588.03;5011368;28;19961;-62
2020/12/25 12:27:50;;;;;;;;;;;;;;;22.32;32.81;100583.34;5010514;28;20417;-61
2020/12/25 12:30:16;;;;;;;;;;;;;;;22.27;32.64;100590.84;4998073;28;19925;-61
2020/12/25 12:32:42;;;;;;;;;;;;;;;22.24;32.77;100595.03;5013970;28;19929;-61
2020/12/25 12:35:09;;;;;;;;;;;;;;;22.20;33.06;100585.59;5015794;28;20012;-62
2020/12/25 12:37:35;;;;;;;;;;;;;;;22.18;32.73;100592.59;5015554;28;20414;-62